createdAt,value
2023-01-26T00:03:21.435Z,99684.75
2023-01-26T00:08:26.675Z,99687.59
2023-01-26T00:13:31.710Z,99698.78
2023-01-26T00:18:34.805Z,99685.81
2023-01-26T00:23:38.118Z,99681.91
2023-01-26T00:28:44.943Z,99675.91
2023-01-26T00:33:48.280Z,99680.66
2023-01-26T00:38:51.748Z,99682.41
2023-01-26T00:43:56.537Z,99689.34
2023-01-26T00:49:01.086Z,99695.25
2023-01-26T00:54:04.642Z,99694.03
2023-01-26T00:59:09.527Z,99698.06
2023-01-26T01:04:12.535Z,99690.34
2023-01-26T01:09:16.077Z,99685.09
2023-01-26T01:14:20.992Z,99687.25
2023-01-26T01:19:24.553Z,99681.56
2023-01-26T01:24:28.076Z,99684.84
2023-01-26T01:29:35.267Z,99671.09
2023-01-26T01:34:38.751Z,99671.13
2023-01-26T01:39:42.315Z,99660.94
2023-01-26T01:45:08.662Z,99653.63
2023-01-26T01:50:19.150Z,99649.81
2023-01-26T01:55:22.603Z,99659.53
2023-01-26T02:00:28.646Z,99653.91
2023-01-26T02:05:37.264Z,99655.59
2023-01-26T02:10:53.772Z,99642.22
2023-01-26T02:16:00.964Z,99648.69
2023-01-26T02:21:07.788Z,99639.19
2023-01-26T02:26:15.690Z,99635.16
2023-01-26T02:31:20.375Z,99634.31
2023-01-26T02:36:25.020Z,99627.09
2023-01-26T02:41:47.131Z,99612.16
2023-01-26T02:46:50.483Z,99614.97
2023-01-26T02:51:53.999Z,99613.50
2023-01-26T02:57:00.967Z,99597.97
2023-01-26T03:02:04.492Z,99605.81
2023-01-26T03:07:07.853Z,99618.63
2023-01-26T03:12:13.245Z,99603.13
2023-01-26T03:17:16.651Z,99602.91
2023-01-26T03:22:37.267Z,99605.25
2023-01-26T03:27:44.935Z,99602.78
2023-01-26T03:32:48.239Z,99592.16
2023-01-26T03:37:55.237Z,99592.56
2023-01-26T03:43:17.398Z,99597.25
2023-01-26T03:48:37.848Z,99601.53
2023-01-26T03:53:58.727Z,99604.28
2023-01-26T03:59:09.337Z,99599.38
2023-01-26T04:04:30.292Z,99594.47
2023-01-26T04:09:34.368Z,99580.75
2023-01-26T04:14:56.583Z,99599.59
2023-01-26T04:20:17.260Z,99600.88
2023-01-26T04:25:23.072Z,99602.91
2023-01-26T04:30:27.945Z,99592.72
2023-01-26T04:35:31.080Z,99599.88
2023-01-26T04:40:34.350Z,99590.53
2023-01-26T04:45:39.269Z,99592.22
2023-01-26T04:50:42.599Z,99601.66
2023-01-26T04:55:45.948Z,99597.44
2023-01-26T05:00:54.316Z,99596.13
2023-01-26T05:05:57.679Z,99587.09
2023-01-26T05:11:02.124Z,99584.59
2023-01-26T05:16:08.008Z,99584.56
2023-01-26T05:21:12.187Z,99571.72
2023-01-26T05:26:15.492Z,99577.81
2023-01-26T05:31:20.437Z,99581.19
2023-01-26T05:36:23.819Z,99574.13
2023-01-26T05:41:27.134Z,99577.91
2023-01-26T05:46:32.043Z,99571.44
2023-01-26T05:51:35.068Z,99570.22
2023-01-26T05:56:38.345Z,99582.84
2023-01-26T06:01:43.178Z,99580.31
2023-01-26T06:06:46.276Z,99574.16
2023-01-26T06:11:49.760Z,99574.97
2023-01-26T06:16:55.082Z,99563.41
2023-01-26T06:21:58.454Z,99558.03
2023-01-26T06:27:02.395Z,99557.31
2023-01-26T06:32:07.721Z,99560.25
2023-01-26T06:37:11.548Z,99556.66
2023-01-26T06:42:15.093Z,99541.88
2023-01-26T06:47:19.922Z,99554.56
2023-01-26T06:52:32.484Z,99556.44
2023-01-26T06:57:36.051Z,99542.28
2023-01-26T07:02:41.830Z,99538.44
2023-01-26T07:07:45.380Z,99546.16
2023-01-26T07:12:48.709Z,99559.88
2023-01-26T07:17:54.865Z,99550.78
2023-01-26T07:23:00.535Z,99548.53
2023-01-26T07:28:04.045Z,99556.00
2023-01-26T07:33:10.108Z,99555.84
2023-01-26T07:38:13.458Z,99546.19
2023-01-26T07:43:17.269Z,99551.84
2023-01-26T07:48:24.382Z,99545.84
2023-01-26T07:53:31.004Z,99546.72
2023-01-26T07:58:36.319Z,99543.78
2023-01-26T08:03:42.059Z,99544.19
2023-01-26T08:08:45.721Z,99545.25
2023-01-26T08:13:49.503Z,99542.19
2023-01-26T08:18:54.392Z,99536.84
2023-01-26T08:24:02.120Z,99535.38
2023-01-26T08:29:05.838Z,99535.75
2023-01-26T08:34:10.847Z,99519.84
2023-01-26T08:39:14.484Z,99524.94
2023-01-26T08:44:18.264Z,99521.63
2023-01-26T08:49:23.371Z,99511.50
2023-01-26T08:54:26.879Z,99502.44
2023-01-26T08:59:30.311Z,99510.47
2023-01-26T09:04:35.152Z,99512.31
2023-01-26T09:09:38.639Z,99509.38
2023-01-26T09:14:42.504Z,99504.63
2023-01-26T09:19:47.422Z,99499.84
2023-01-26T09:24:50.685Z,99508.75
2023-01-26T09:29:54.257Z,99498.72
2023-01-26T09:34:59.236Z,99507.91
2023-01-26T09:40:02.907Z,99513.94
2023-01-26T09:45:23.162Z,99505.47
2023-01-26T09:50:32.592Z,99508.16
2023-01-26T09:55:36.213Z,99498.97
2023-01-26T10:00:43.500Z,99492.91
2023-01-26T10:05:53.672Z,99489.63
2023-01-26T10:11:02.144Z,99489.81
2023-01-26T10:16:11.727Z,99483.13
2023-01-26T10:21:22.569Z,99483.25
2023-01-26T10:26:26.214Z,99477.03
2023-01-26T10:31:33.974Z,99465.94
2023-01-26T10:36:39.649Z,99464.53
2023-01-26T10:41:56.875Z,99464.06
2023-01-26T10:47:08.318Z,99456.34
2023-01-26T10:52:19.325Z,99446.09
2023-01-26T10:57:29.348Z,99437.31
2023-01-26T11:02:33.671Z,99428.88
2023-01-26T11:07:40.479Z,99418.72
2023-01-26T11:12:44.594Z,99418.88
2023-01-26T11:17:58.149Z,99413.47
2023-01-26T11:23:10.303Z,99414.03
2023-01-26T11:28:33.268Z,99412.09
2023-01-26T11:33:44.530Z,99414.88
2023-01-26T11:38:56.669Z,99403.41
2023-01-26T11:44:24.932Z,99411.09
2023-01-26T11:49:46.512Z,99405.22
2023-01-26T11:55:06.654Z,99410.28
2023-01-26T12:00:29.538Z,99404.72
2023-01-26T12:05:44.694Z,99410.72
2023-01-26T12:10:59.220Z,99425.94
2023-01-26T12:16:10.080Z,99420.69
2023-01-26T12:21:13.930Z,99420.28
2023-01-26T12:26:22.594Z,99417.25
2023-01-26T12:31:33.581Z,99413.88
2023-01-26T12:36:47.472Z,99426.31
2023-01-26T12:42:17.624Z,99413.13
2023-01-26T12:47:28.336Z,99411.19
2023-01-26T12:52:37.531Z,99411.19
2023-01-26T12:57:49.144Z,99410.56
2023-01-26T13:02:57.667Z,99406.06
2023-01-26T13:08:39.914Z,99400.16
2023-01-26T13:13:56.575Z,99402.16
2023-01-26T13:19:01.387Z,99402.31
2023-01-26T13:24:30.936Z,99410.28
2023-01-26T13:29:36.979Z,99410.97
2023-01-26T13:34:44.205Z,99422.09
2023-01-26T13:39:53.431Z,99414.09
2023-01-26T13:45:02.434Z,99414.28
2023-01-26T13:50:25.299Z,99411.09
2023-01-26T13:55:32.546Z,99407.72
2023-01-26T14:00:37.540Z,99408.25
2023-01-26T14:05:42.151Z,99409.09
2023-01-26T14:10:45.762Z,99404.22
2023-01-26T14:15:58.014Z,99396.63
2023-01-26T14:21:04.333Z,99392.78
2023-01-26T14:26:16.886Z,99391.97
2023-01-26T14:31:24.470Z,99391.22
2023-01-26T14:36:29.585Z,99394.66
2023-01-26T14:41:37.349Z,99397.16
2023-01-26T14:46:52.379Z,99401.69
2023-01-26T14:51:56.933Z,99403.41
2023-01-26T14:57:01.925Z,99398.25
2023-01-26T15:02:17.227Z,99388.88
2023-01-26T15:07:39.453Z,99390.81
2023-01-26T15:12:43.451Z,99394.59
2023-01-26T15:17:50.702Z,99388.00
2023-01-26T15:22:55.435Z,99371.94
2023-01-26T15:28:01.303Z,99374.44
2023-01-26T15:33:06.403Z,99352.44
2023-01-26T15:38:12.092Z,99385.41
2023-01-26T15:43:16.684Z,99383.19
2023-01-26T15:48:22.219Z,99381.94
2023-01-26T15:53:25.629Z,99387.59
2023-01-26T15:58:32.102Z,99391.69
2023-01-26T16:03:36.896Z,99383.53
2023-01-26T16:08:40.397Z,99385.81
2023-01-26T16:13:53.964Z,99385.97
2023-01-26T16:19:08.912Z,99383.88
2023-01-26T16:24:12.767Z,99373.66
2023-01-26T16:29:16.143Z,99373.44
2023-01-26T16:34:20.960Z,99373.41
2023-01-26T16:39:24.544Z,99371.41
2023-01-26T16:44:27.861Z,99365.59
2023-01-26T16:49:34.290Z,99363.84
2023-01-26T16:54:38.101Z,99370.00
2023-01-26T16:59:41.730Z,99367.72
2023-01-26T17:04:46.619Z,99368.34
2023-01-26T17:09:49.955Z,99365.06
2023-01-26T17:14:53.447Z,99363.03
2023-01-26T17:20:09.243Z,99366.75
2023-01-26T17:25:21.178Z,99365.34
2023-01-26T17:30:24.697Z,99361.06
2023-01-26T17:35:29.646Z,99369.19
2023-01-26T17:40:32.682Z,99365.19
2023-01-26T17:45:36.138Z,99367.41
2023-01-26T17:50:40.882Z,99367.59
2023-01-26T17:55:44.756Z,99368.44
2023-01-26T18:00:48.125Z,99366.44
2023-01-26T18:05:53.851Z,99357.50
2023-01-26T18:11:01.931Z,99361.06
2023-01-26T18:16:07.610Z,99361.41
2023-01-26T18:21:17.392Z,99352.56
2023-01-26T18:26:22.990Z,99350.47
2023-01-26T18:31:28.608Z,99344.28
2023-01-26T18:36:33.740Z,99340.47
2023-01-26T18:41:38.153Z,99341.88
2023-01-26T18:46:41.632Z,99337.69
2023-01-26T18:51:48.319Z,99332.13
2023-01-26T18:56:51.752Z,99327.13
2023-01-26T19:01:55.543Z,99337.00
2023-01-26T19:07:00.536Z,99340.25
2023-01-26T19:12:04.185Z,99339.75
2023-01-26T19:17:07.760Z,99339.00
2023-01-26T19:22:12.656Z,99337.47
2023-01-26T19:27:15.873Z,99330.81
2023-01-26T19:32:19.504Z,99322.75
2023-01-26T19:37:26.347Z,99339.06
2023-01-26T19:42:29.704Z,99336.84
2023-01-26T19:47:35.570Z,99328.09
2023-01-26T19:52:40.383Z,99329.91
2023-01-26T19:57:43.583Z,99327.69
2023-01-26T20:02:48.417Z,99327.34
2023-01-26T20:07:52.918Z,99322.59
2023-01-26T20:12:57.604Z,99319.84
2023-01-26T20:18:00.976Z,99323.34
2023-01-26T20:23:07.631Z,99322.47
2023-01-26T20:28:11.225Z,99312.31
2023-01-26T20:33:14.884Z,99324.91
2023-01-26T20:38:19.676Z,99317.44
2023-01-26T20:43:22.996Z,99324.75
2023-01-26T20:48:26.854Z,99323.34
2023-01-26T20:53:32.428Z,99324.06
2023-01-26T20:58:38.242Z,99317.59
2023-01-26T21:03:42.456Z,99326.50
2023-01-26T21:08:47.508Z,99319.09
2023-01-26T21:13:52.191Z,99317.28
2023-01-26T21:18:56.034Z,99326.22
2023-01-26T21:24:01.016Z,99324.53
2023-01-26T21:29:05.722Z,99323.84
2023-01-26T21:34:11.126Z,99320.75
2023-01-26T21:39:16.151Z,99313.94
2023-01-26T21:44:21.138Z,99308.31
2023-01-26T21:49:25.835Z,99318.31
2023-01-26T21:54:31.972Z,99316.66
2023-01-26T21:59:35.295Z,99308.91
2023-01-26T22:04:38.603Z,99318.31
2023-01-26T22:09:43.570Z,99308.84
2023-01-26T22:14:46.595Z,99319.22
2023-01-26T22:19:56.586Z,99319.97
2023-01-26T22:25:01.488Z,99313.59
2023-01-26T22:30:05.826Z,99314.19
2023-01-26T22:35:10.121Z,99308.63
2023-01-26T22:40:16.816Z,99297.84
2023-01-26T22:45:20.839Z,99317.53
2023-01-26T22:50:24.331Z,99312.38
2023-01-26T22:55:29.088Z,99313.28
2023-01-26T23:00:33.440Z,99308.44
2023-01-26T23:05:37.036Z,99309.56
2023-01-26T23:10:41.936Z,99311.63
2023-01-26T23:15:44.951Z,99313.03
2023-01-26T23:20:48.850Z,99311.13
2023-01-26T23:25:54.172Z,99314.81
2023-01-26T23:30:59.031Z,99307.38
2023-01-26T23:36:02.470Z,99304.81
2023-01-26T23:41:09.872Z,99306.19
2023-01-26T23:46:13.762Z,99303.13
2023-01-26T23:51:17.240Z,99311.97
2023-01-26T23:56:21.956Z,99314.41
